Time;durP1;ratioP1;P1;durP2;ratioP2;P2;SDS_P1;SDS_P2;PMS_P1;PMS_P2;Temp;Humidity;BMP_temperature;BMP_pressure;BME280_temperature;BME280_humidity;BME280_pressure;Samples;Min_cycle;Max_cycle;Signal;HPM_P1;HPM_P2
2022/05/22 00:01:55;;;;;;;21.40;7.75;;;;;;;13.86;80.06;101748.22;5031036;28;20033;-79
2022/05/22 00:04:21;;;;;;;18.30;6.47;;;;;;;13.91;80.11;101747.56;5032065;28;20068;-79
2022/05/22 00:06:47;;;;;;;15.32;5.97;;;;;;;13.89;80.85;101745.06;5032582;28;20040;-78
2022/05/22 00:09:12;;;;;;;14.35;6.28;;;;;;;13.89;80.18;101741.47;5032825;28;20033;-79
2022/05/22 00:11:38;;;;;;;14.15;5.70;;;;;;;13.90;80.30;101740.44;5038101;28;20021;-78
2022/05/22 00:14:03;;;;;;;16.17;6.07;;;;;;;13.95;79.64;101743.31;5038340;28;20056;-78
2022/05/22 00:16:40;;;;;;;15.18;6.22;;;;;;;13.87;80.69;101736.28;5034990;28;20033;-78
2022/05/22 00:19:08;;;;;;;16.63;6.68;;;;;;;13.91;80.81;101742.94;5015545;28;20026;-78
2022/05/22 00:21:35;;;;;;;18.35;5.97;;;;;;;13.84;80.70;101728.56;5014776;28;20045;-79
2022/05/22 00:24:01;;;;;;;12.13;5.55;;;;;;;13.93;80.88;101738.09;5014724;28;20037;-77
2022/05/22 00:26:26;;;;;;;20.40;8.43;;;;;;;13.91;80.48;101729.34;5032215;28;20026;-79
2022/05/22 00:28:51;;;;;;;23.30;9.13;;;;;;;13.90;80.70;101730.38;5031443;28;20503;-79
2022/05/22 00:31:16;;;;;;;20.77;8.70;;;;;;;13.94;80.27;101731.59;5032624;28;20029;-79
2022/05/22 00:33:42;;;;;;;14.05;5.55;;;;;;;13.98;80.21;101732.81;5036089;28;20453;-78
2022/05/22 00:36:07;;;;;;;10.75;4.90;;;;;;;13.98;80.42;101719.22;5035753;28;20030;-78
2022/05/22 00:38:32;;;;;;;16.58;5.25;;;;;;;13.92;79.95;101722.84;5018102;28;20033;-77
2022/05/22 00:40:58;;;;;;;13.60;5.07;;;;;;;13.89;79.63;101731.44;5035565;28;20029;-79
2022/05/22 00:43:28;;;;;;;15.07;5.50;;;;;;;13.86;80.57;101712.88;5035196;28;20030;-76
2022/05/22 00:45:54;;;;;;;12.90;5.43;;;;;;;13.90;80.22;101715.94;5018298;28;20025;-78
2022/05/22 00:48:19;;;;;;;14.27;5.63;;;;;;;13.84;81.35;101714.97;5035704;28;20029;-78
2022/05/22 00:50:44;;;;;;;15.73;5.80;;;;;;;13.86;81.29;101712.00;5035962;28;20041;-78
2022/05/22 00:53:10;;;;;;;15.52;6.13;;;;;;;13.86;81.29;101712.88;5022759;28;20061;-78
2022/05/22 00:55:36;;;;;;;14.82;5.80;;;;;;;13.88;80.85;101718.06;4998097;28;20022;-78
2022/05/22 00:58:07;;;;;;;15.70;5.63;;;;;;;13.88;80.91;101720.81;5015957;28;20071;-79
2022/05/22 01:00:35;;;;;;;13.63;5.40;;;;;;;13.83;80.00;101707.88;5013563;28;20030;-78
2022/05/22 01:05:49;;;;;;;13.38;5.38;;;;;;;13.85;80.63;101699.50;5015977;28;20095;-78
2022/05/22 01:08:14;;;;;;;13.38;5.35;;;;;;;13.78;80.49;101694.94;5015819;28;20022;-79
2022/05/22 01:10:43;;;;;;;13.85;5.90;;;;;;;13.75;81.76;101705.44;5015084;28;20503;-78
2022/05/22 01:13:10;;;;;;;18.58;6.03;;;;;;;13.72;81.40;101703.97;4997971;28;20171;-79
2022/05/22 01:15:36;;;;;;;16.95;5.70;;;;;;;13.65;81.65;101712.22;5015343;28;20036;-79
2022/05/22 01:18:01;;;;;;;15.45;5.88;;;;;;;13.62;82.13;101715.41;5015818;28;20026;-76
2022/05/22 01:20:26;;;;;;;16.48;5.95;;;;;;;13.58;82.08;101716.06;5015227;28;20026;-76
2022/05/22 01:22:52;;;;;;;14.50;6.10;;;;;;;13.57;82.24;101712.53;5015339;28;20078;-77
2022/05/22 01:25:17;;;;;;;19.02;6.40;;;;;;;13.59;81.94;101704.97;4997802;28;20041;-77
2022/05/22 01:27:42;;;;;;;17.75;6.18;;;;;;;13.58;82.49;101700.56;4999361;28;20088;-79
2022/05/22 01:30:16;;;;;;;14.25;6.10;;;;;;;13.52;82.86;101696.03;5016199;28;20037;-80
2022/05/22 01:32:43;;;;;;;15.40;6.22;;;;;;;13.50;83.14;101698.16;5015722;28;20026;-80
2022/05/22 01:35:11;;;;;;;15.98;6.35;;;;;;;13.46;82.84;101692.31;4997632;28;20040;-80
2022/05/22 01:37:37;;;;;;;16.58;5.97;;;;;;;13.48;83.05;101692.09;5030930;28;20030;-78
2022/05/22 01:40:03;;;;;;;16.65;5.93;;;;;;;13.42;83.49;101684.84;5039342;28;20036;-78
2022/05/22 01:42:29;;;;;;;13.50;5.47;;;;;;;13.31;83.16;101672.78;5018284;28;20026;-77
2022/05/22 01:44:54;;;;;;;15.32;6.55;;;;;;;13.34;83.59;101672.34;5001214;28;20374;-78
2022/05/22 01:47:20;;;;;;;14.45;5.95;;;;;;;13.27;84.25;101674.28;5015332;28;20037;-80
2022/05/22 01:49:45;;;;;;;14.07;6.25;;;;;;;13.26;84.01;101665.28;5015038;28;20088;-80
2022/05/22 01:52:10;;;;;;;16.42;6.35;;;;;;;13.27;83.92;101666.97;5018539;28;20050;-80
2022/05/22 01:54:36;;;;;;;17.42;5.90;;;;;;;13.26;84.20;101670.72;5034186;28;20029;-79
2022/05/22 01:57:02;;;;;;;21.20;6.38;;;;;;;13.24;84.06;101670.13;5034528;28;20040;-78
2022/05/22 01:59:27;;;;;;;16.70;6.10;;;;;;;13.17;84.36;101677.50;5005043;28;20128;-81
2022/05/22 02:01:53;;;;;;;15.93;6.43;;;;;;;13.11;84.81;101683.81;5011952;28;20064;-79
2022/05/22 02:04:18;;;;;;;12.38;6.03;;;;;;;13.11;84.91;101668.34;5014404;28;20030;-79
2022/05/22 02:09:28;;;;;;;13.75;5.95;;;;;;;13.04;85.38;101666.75;5013838;28;20396;-79
2022/05/22 02:11:53;;;;;;;12.75;5.75;;;;;;;12.98;85.62;101665.72;4996808;28;20589;-80
2022/05/22 02:14:19;;;;;;;14.27;6.18;;;;;;;12.97;85.47;101663.22;5007828;28;20128;-78
2022/05/22 02:16:45;;;;;;;14.50;6.60;;;;;;;12.97;85.33;101665.94;5015907;28;20068;-80
2022/05/22 02:19:10;;;;;;;18.25;6.75;;;;;;;12.97;84.96;101663.22;5033436;28;20396;-79
2022/05/22 02:21:36;;;;;;;15.88;6.30;;;;;;;12.96;85.42;101656.97;5032905;28;20104;-78
2022/05/22 02:24:01;;;;;;;14.30;6.25;;;;;;;12.91;85.40;101659.53;5015636;28;20037;-77
2022/05/22 02:26:27;;;;;;;14.60;5.93;;;;;;;12.85;85.36;101653.09;5015386;28;20048;-79
2022/05/22 02:28:54;;;;;;;11.38;5.57;;;;;;;12.77;85.99;101646.06;5028838;28;20024;-78
2022/05/22 02:31:20;;;;;;;14.93;6.95;;;;;;;12.69;86.27;101648.19;4996498;28;20048;-79
2022/05/22 02:33:48;;;;;;;17.30;6.13;;;;;;;12.65;85.97;101633.38;5013397;28;20030;-78
2022/05/22 02:36:14;;;;;;;14.43;6.38;;;;;;;12.59;87.04;101637.81;4996594;28;20037;-79
2022/05/22 02:38:40;;;;;;;12.55;6.63;;;;;;;12.61;87.09;101637.63;5013960;28;20067;-80
2022/05/22 02:41:17;;;;;;;15.23;6.78;;;;;;;12.53;86.97;101622.41;4998695;28;20022;-77
2022/05/22 02:43:43;;;;;;;17.83;7.32;;;;;;;12.55;87.15;101620.31;5022493;28;20113;-79
2022/05/22 02:46:11;;;;;;;17.67;7.35;;;;;;;12.55;87.42;101621.13;5017949;28;20037;-80
2022/05/22 02:48:37;;;;;;;15.35;7.43;;;;;;;12.52;87.13;101621.56;5016000;28;20064;-78
2022/05/22 02:51:02;;;;;;;14.60;7.57;;;;;;;12.47;87.15;101621.41;5017276;28;20377;-76
2022/05/22 02:53:27;;;;;;;15.93;7.70;;;;;;;12.46;87.77;101618.91;5020035;28;20065;-78
2022/05/22 02:55:53;;;;;;;15.20;7.60;;;;;;;12.40;87.79;101626.03;4998125;28;20026;-77
2022/05/22 02:58:18;;;;;;;14.60;7.55;;;;;;;12.40;88.06;101635.00;5013435;28;20625;-77
2022/05/22 03:00:43;;;;;;;14.82;7.43;;;;;;;12.39;88.63;101619.78;5010797;28;20025;-77
2022/05/22 03:03:09;;;;;;;17.52;7.63;;;;;;;12.41;89.00;101622.28;4995752;28;20040;-79
2022/05/22 03:08:18;;;;;;;19.80;8.20;;;;;;;12.39;88.17;101627.06;5013180;28;20044;-78
2022/05/22 03:10:44;;;;;;;14.27;7.18;;;;;;;12.44;88.27;101616.41;4995502;28;20038;-78
2022/05/22 03:13:11;;;;;;;19.02;7.90;;;;;;;12.43;88.73;101622.06;4995473;28;20041;-79
2022/05/22 03:15:37;;;;;;;18.00;7.45;;;;;;;12.35;88.79;101617.69;5019957;28;20429;-76
2022/05/22 03:18:02;;;;;;;15.40;7.95;;;;;;;12.36;88.51;101613.94;5013144;28;20096;-80
2022/05/22 03:20:30;;;;;;;17.63;7.07;;;;;;;12.39;88.89;101617.06;5013042;28;20026;-79
2022/05/22 03:22:55;;;;;;;12.18;7.32;;;;;;;12.34;88.73;101613.34;5024751;28;20033;-78
2022/05/22 03:25:20;;;;;;;14.80;7.53;;;;;;;12.30;89.01;101610.22;5032709;28;20025;-79
2022/05/22 03:27:46;;;;;;;17.80;7.32;;;;;;;12.32;88.93;101596.44;5014856;28;20040;-78
2022/05/22 03:30:11;;;;;;;13.30;7.25;;;;;;;12.32;88.82;101601.84;5032788;28;20025;-78
2022/05/22 03:32:36;;;;;;;15.50;8.18;;;;;;;12.27;89.52;101598.97;5032747;28;20021;-78
2022/05/22 03:35:02;;;;;;;14.18;7.18;;;;;;;12.26;89.51;101594.59;5025907;28;20476;-79
2022/05/22 03:37:27;;;;;;;14.27;7.45;;;;;;;12.30;89.58;101601.25;5012875;28;20113;-78
2022/05/22 03:39:53;;;;;;;14.05;7.07;;;;;;;12.30;89.79;101601.25;5012609;28;20030;-77
2022/05/22 03:42:18;;;;;;;12.98;6.82;;;;;;;12.29;89.08;101600.44;5013342;28;20069;-79
2022/05/22 03:44:44;;;;;;;18.50;6.82;;;;;;;12.33;89.37;101595.38;5012680;28;20034;-78
2022/05/22 03:47:09;;;;;;;13.70;6.28;;;;;;;12.31;88.92;101584.75;4995258;28;20046;-80
2022/05/22 03:49:34;;;;;;;16.15;7.00;;;;;;;12.37;88.71;101585.75;5012867;28;20057;-78
2022/05/22 03:52:00;;;;;;;16.20;6.82;;;;;;;12.33;88.43;101584.53;4981501;28;20468;-78
2022/05/22 03:54:26;;;;;;;11.55;6.32;;;;;;;12.32;88.60;101582.84;5033269;28;20021;-76
2022/05/22 03:56:51;;;;;;;11.90;6.25;;;;;;;12.18;88.63;101582.97;5014904;28;20488;-77
2022/05/22 03:59:16;;;;;;;19.02;7.47;;;;;;;12.20;88.81;101580.84;5033126;28;20037;-77
2022/05/22 04:01:42;;;;;;;16.13;6.95;;;;;;;12.10;88.72;101591.34;5030812;28;20037;-78
2022/05/22 04:04:07;;;;;;;14.25;7.20;;;;;;;12.00;89.19;101593.69;5033450;28;20108;-77
2022/05/22 04:06:32;;;;;;;16.33;7.82;;;;;;;11.94;88.97;101602.69;5026969;28;20069;-80
2022/05/22 04:08:58;;;;;;;16.92;8.68;;;;;;;11.95;89.82;101596.22;5017152;28;20040;-79
2022/05/22 04:11:23;;;;;;;15.60;7.80;;;;;;;11.94;90.06;101594.56;5017480;28;20034;-80
2022/05/22 04:13:48;;;;;;;15.57;8.02;;;;;;;11.98;89.91;101595.78;5016945;28;20038;-80
2022/05/22 04:16:14;;;;;;;15.35;7.88;;;;;;;11.96;90.16;101589.75;4999812;28;20117;-76
2022/05/22 04:18:39;;;;;;;14.23;7.88;;;;;;;12.04;90.12;101589.50;5017646;28;20030;-79
2022/05/22 04:21:05;;;;;;;15.55;7.85;;;;;;;12.04;89.97;101586.78;5018324;28;20030;-78
2022/05/22 04:26:15;;;;;;;17.17;7.97;;;;;;;11.99;90.40;101586.63;5019032;28;20795;-79
2022/05/22 04:28:40;;;;;;;15.68;8.25;;;;;;;11.95;90.06;101583.50;5035884;28;20143;-80
2022/05/22 04:31:06;;;;;;;20.05;8.55;;;;;;;11.93;90.46;101587.47;5035812;28;20025;-78
2022/05/22 04:33:32;;;;;;;15.80;8.40;;;;;;;11.99;90.53;101583.91;5036237;28;20480;-79
2022/05/22 04:35:58;;;;;;;15.77;8.50;;;;;;;11.96;90.68;101584.34;5016589;28;20025;-77
2022/05/22 04:38:24;;;;;;;20.98;9.40;;;;;;;12.00;90.54;101583.69;5035610;28;20444;-79
2022/05/22 04:40:55;;;;;;;17.60;8.68;;;;;;;12.06;90.38;101584.69;5035295;28;20393;-78
2022/05/22 04:43:21;;;;;;;16.77;9.43;;;;;;;12.01;90.20;101587.22;5036496;28;20036;-78
2022/05/22 04:45:47;;;;;;;17.58;9.00;;;;;;;12.04;90.61;101590.31;5036810;28;20040;-78
2022/05/22 04:48:12;;;;;;;16.98;9.35;;;;;;;12.07;90.67;101593.66;5020871;28;20022;-77
2022/05/22 04:50:37;;;;;;;19.15;9.05;;;;;;;12.12;89.71;101597.38;5040714;28;20029;-79
2022/05/22 04:53:03;;;;;;;17.00;8.23;;;;;;;12.14;90.16;101592.59;5039116;28;20101;-79
2022/05/22 04:55:28;;;;;;;18.52;9.05;;;;;;;12.15;89.42;101593.41;5029488;28;20038;-80
2022/05/22 04:57:54;;;;;;;16.27;8.95;;;;;;;12.18;89.67;101599.25;5016792;28;20026;-79
2022/05/22 05:00:19;;;;;;;15.90;8.15;;;;;;;12.20;88.68;101588.19;4998665;28;20034;-79
2022/05/22 05:02:44;;;;;;;20.02;9.38;;;;;;;12.26;89.36;101583.72;5013881;28;20052;-78
2022/05/22 05:05:10;;;;;;;20.00;9.02;;;;;;;12.19;89.34;101575.66;5015332;28;20034;-80
2022/05/22 05:07:40;;;;;;;23.20;9.52;;;;;;;12.22;89.87;101578.75;5016554;28;20095;-79
2022/05/22 05:10:08;;;;;;;20.45;9.18;;;;;;;12.28;89.26;101571.63;5026569;28;20038;-77
2022/05/22 05:12:36;;;;;;;15.23;9.30;;;;;;;12.32;88.83;101582.84;5021957;28;20029;-78
2022/05/22 05:15:02;;;;;;;14.55;9.18;;;;;;;12.33;89.61;101577.22;5030304;28;20026;-78
2022/05/22 05:17:28;;;;;;;19.20;9.75;;;;;;;12.39;89.26;101581.78;5014122;28;20060;-77
2022/05/22 05:19:53;;;;;;;15.27;9.00;;;;;;;12.47;88.54;101582.56;5037214;28;20034;-80
2022/05/22 05:22:19;;;;;;;19.13;8.85;;;;;;;12.47;88.52;101577.97;5017448;28;20042;-80
2022/05/22 05:24:44;;;;;;;19.92;9.32;;;;;;;12.49;88.67;101580.47;4998561;28;20432;-77
2022/05/22 05:27:09;;;;;;;15.57;9.05;;;;;;;12.51;88.16;101578.34;5016083;28;20030;-80
2022/05/22 05:29:35;;;;;;;18.38;8.77;;;;;;;12.64;87.77;101575.53;5015919;28;20026;-80
2022/05/22 05:32:00;;;;;;;19.52;9.25;;;;;;;12.71;87.69;101575.47;4997821;28;20053;-77
2022/05/22 05:34:25;;;;;;;18.15;8.85;;;;;;;12.75;87.42;101576.72;4997315;28;20029;-79
2022/05/22 05:36:51;;;;;;;21.15;9.77;;;;;;;12.84;86.28;101580.81;4981041;28;20057;-80
2022/05/22 05:39:16;;;;;;;18.40;10.15;;;;;;;12.80;87.62;101582.28;5015165;28;20033;-78
2022/05/22 05:41:42;;;;;;;18.25;10.27;;;;;;;12.86;86.24;101584.16;4997662;28;20461;-78
2022/05/22 05:44:07;;;;;;;15.52;9.70;;;;;;;12.88;87.71;101582.03;5014063;28;20083;-77
2022/05/22 05:46:33;;;;;;;20.38;9.93;;;;;;;12.95;87.38;101581.97;5015340;28;20033;-79
2022/05/22 05:48:59;;;;;;;14.77;9.32;;;;;;;12.95;87.17;101576.53;5015792;28;20045;-79
2022/05/22 05:51:24;;;;;;;15.25;8.77;;;;;;;13.03;85.85;101580.84;4998574;28;20045;-79
2022/05/22 05:53:49;;;;;;;15.90;9.57;;;;;;;13.07;86.92;101585.63;5032450;28;20481;-80
2022/05/22 05:56:15;;;;;;;18.90;9.73;;;;;;;13.12;86.25;101583.06;5016558;28;20030;-77
2022/05/22 05:58:40;;;;;;;15.63;9.60;;;;;;;13.19;86.51;101582.16;5034158;28;20029;-77
2022/05/22 06:01:05;;;;;;;18.30;9.68;;;;;;;13.28;85.85;101586.25;5034470;28;20116;-78
2022/05/22 06:03:31;;;;;;;14.63;9.65;;;;;;;13.29;85.40;101583.31;5017632;28;20065;-79
2022/05/22 06:05:57;;;;;;;18.10;10.02;;;;;;;13.32;85.80;101584.75;5015581;28;20068;-78
2022/05/22 06:08:22;;;;;;;19.60;10.68;;;;;;;13.34;86.36;101590.81;5016400;28;20429;-79
2022/05/22 06:10:47;;;;;;;20.05;10.82;;;;;;;13.38;85.95;101586.59;5033747;28;20029;-80
2022/05/22 06:13:13;;;;;;;15.95;9.68;;;;;;;13.39;86.11;101592.84;5016066;28;20026;-78
2022/05/22 06:15:38;;;;;;;17.42;10.50;;;;;;;13.44;85.32;101582.16;5016380;28;20488;-78
2022/05/22 06:18:03;;;;;;;17.23;10.18;;;;;;;13.51;86.14;101585.59;5033771;28;20087;-78
2022/05/22 06:20:29;;;;;;;16.70;10.18;;;;;;;13.60;86.39;101588.84;5017483;28;20046;-79
2022/05/22 06:22:54;;;;;;;24.23;10.82;;;;;;;13.63;86.27;101577.50;4996197;28;20037;-79
2022/05/22 06:25:20;;;;;;;20.65;10.70;;;;;;;13.69;86.75;101575.78;5014341;28;20654;-79
2022/05/22 06:27:46;;;;;;;13.63;9.75;;;;;;;13.71;84.82;101584.53;4996202;28;20041;-78
2022/05/22 06:30:13;;;;;;;18.60;9.88;;;;;;;13.73;84.94;101593.31;5013310;28;20088;-80
2022/05/22 06:32:40;;;;;;;17.55;10.40;;;;;;;13.75;85.54;101596.63;5013992;28;20045;-79
2022/05/22 06:35:10;;;;;;;20.73;10.00;;;;;;;13.76;85.12;101592.84;5010691;28;20052;-78
2022/05/22 06:37:36;;;;;;;19.75;10.77;;;;;;;13.80;85.56;101596.78;5033669;28;20484;-78
2022/05/22 06:40:03;;;;;;;22.70;10.57;;;;;;;13.79;86.38;101600.56;5032101;28;20030;-80
2022/05/22 06:42:32;;;;;;;21.90;10.93;;;;;;;13.82;85.95;101603.66;5015729;28;20033;-77
2022/05/22 06:45:03;;;;;;;19.65;10.50;;;;;;;13.85;85.62;101598.81;5033272;28;20176;-79
2022/05/22 06:47:30;;;;;;;14.50;10.57;;;;;;;13.94;85.80;101601.00;5033741;28;20025;-77
2022/05/22 06:49:57;;;;;;;20.08;10.68;;;;;;;13.96;85.76;101598.84;5015622;28;20453;-77
2022/05/22 06:52:23;;;;;;;26.45;10.45;;;;;;;13.96;84.70;101598.84;5015863;28;20041;-79
2022/05/22 06:54:48;;;;;;;22.05;10.73;;;;;;;13.98;84.93;101587.78;5020135;28;20040;-79
2022/05/22 06:57:19;;;;;;;16.27;11.25;;;;;;;14.05;84.71;101593.13;5013659;28;20117;-78
2022/05/22 06:59:46;;;;;;;18.30;11.50;;;;;;;14.09;85.10;101597.03;4996164;28;20088;-77
2022/05/22 07:02:12;;;;;;;16.33;10.15;;;;;;;14.10;82.42;101595.97;5011636;28;20327;-78
2022/05/22 07:04:38;;;;;;;18.92;10.30;;;;;;;14.15;82.50;101583.34;5013774;28;20030;-81
2022/05/22 07:07:04;;;;;;;14.73;9.32;;;;;;;14.26;81.63;101587.16;5013500;28;20042;-78
2022/05/22 07:09:29;;;;;;;18.38;10.18;;;;;;;14.33;81.79;101587.91;5013612;28;20448;-79
2022/05/22 07:11:55;;;;;;;15.27;9.43;;;;;;;14.40;82.06;101589.69;5013356;28;20057;-77
2022/05/22 07:14:22;;;;;;;18.63;9.13;;;;;;;14.48;78.62;101592.09;4995880;28;20080;-78
2022/05/22 07:16:47;;;;;;;19.45;9.75;;;;;;;14.51;79.50;101580.72;5014395;28;20528;-79
2022/05/22 07:19:13;;;;;;;20.38;9.30;;;;;;;14.60;79.96;101573.88;5018373;28;20072;-78
2022/05/22 07:21:38;;;;;;;18.02;9.82;;;;;;;14.68;79.87;101587.19;5021157;28;20030;-80
2022/05/22 07:24:04;;;;;;;18.35;9.15;;;;;;;14.76;77.96;101580.53;5033332;28;20106;-79
2022/05/22 07:26:30;;;;;;;17.15;9.48;;;;;;;14.81;78.59;101582.56;5033131;28;20037;-79
2022/05/22 07:28:58;;;;;;;16.63;8.68;;;;;;;14.88;77.76;101580.56;5016270;28;20037;-80
2022/05/22 07:31:25;;;;;;;16.45;9.70;;;;;;;14.89;78.61;101574.06;5017915;28;20117;-80
2022/05/22 07:33:51;;;;;;;20.17;8.40;;;;;;;14.97;76.42;101570.97;5036916;28;20028;-79
2022/05/22 07:36:17;;;;;;;12.18;8.25;;;;;;;15.07;76.48;101576.66;5039910;28;20025;-79
2022/05/22 07:38:43;;;;;;;17.05;8.38;;;;;;;15.18;76.38;101577.72;5022294;28;20530;-78
2022/05/22 07:41:08;;;;;;;18.48;8.18;;;;;;;15.26;74.13;101579.25;5007188;28;20034;-79
2022/05/22 07:43:34;;;;;;;16.58;7.28;;;;;;;15.27;73.78;101572.75;5021534;28;20041;-79
2022/05/22 07:45:59;;;;;;;17.40;7.45;;;;;;;15.26;71.79;101579.25;5018193;28;20026;-79
2022/05/22 07:48:25;;;;;;;15.80;6.82;;;;;;;15.27;72.21;101580.91;5014798;28;20500;-77
2022/05/22 07:50:55;;;;;;;13.90;7.05;;;;;;;15.41;75.49;101573.31;5012795;28;20037;-80
2022/05/22 07:53:20;;;;;;;12.60;6.65;;;;;;;15.46;72.89;101569.84;5008558;28;20071;-78
2022/05/22 07:55:46;;;;;;;15.23;6.45;;;;;;;15.53;72.39;101563.19;5012869;28;20450;-78
2022/05/22 07:58:12;;;;;;;14.27;6.25;;;;;;;15.65;72.31;101565.91;4990667;28;20030;-75
2022/05/22 08:00:38;;;;;;;13.65;6.03;;;;;;;15.68;69.18;101562.69;5011002;28;20053;-75
2022/05/22 08:03:11;;;;;;;12.68;6.15;;;;;;;15.69;70.42;101558.91;5011927;28;20453;-75
2022/05/22 08:05:36;;;;;;;16.90;6.15;;;;;;;15.71;68.63;101559.47;4997922;28;20038;-75
2022/05/22 08:08:01;;;;;;;18.45;7.28;;;;;;;15.71;69.89;101548.56;5012020;28;20082;-75
2022/05/22 08:10:26;;;;;;;12.13;5.80;;;;;;;15.83;68.46;101558.66;5015462;28;20078;-76
2022/05/22 08:12:52;;;;;;;10.63;4.60;;;;;;;15.91;68.99;101556.38;4997193;28;20029;-76
2022/05/22 08:15:22;;;;;;;14.20;4.80;;;;;;;15.92;69.81;101554.47;5012702;28;20105;-76
2022/05/22 08:17:47;;;;;;;13.90;4.53;;;;;;;15.96;65.24;101552.91;4995400;28;20177;-74
2022/05/22 08:20:16;;;;;;;13.23;4.43;;;;;;;16.00;66.14;101539.59;5012777;28;20053;-76
2022/05/22 08:22:45;;;;;;;11.93;4.22;;;;;;;16.12;67.45;101533.00;5012529;28;20072;-75
2022/05/22 08:25:17;;;;;;;11.90;4.88;;;;;;;16.26;65.82;101536.25;5012726;28;20026;-76
2022/05/22 08:27:42;;;;;;;9.15;3.33;;;;;;;16.30;63.92;101529.22;5012635;28;20038;-73
2022/05/22 08:30:14;;;;;;;8.52;2.97;;;;;;;16.40;61.91;101522.28;5011754;28;20070;-76
2022/05/22 08:32:40;;;;;;;9.98;3.20;;;;;;;16.47;62.29;101528.38;5012320;28;20033;-76
2022/05/22 08:35:08;;;;;;;8.77;2.60;;;;;;;16.44;58.77;101524.28;5012008;28;20037;-76
2022/05/22 08:37:34;;;;;;;7.50;3.20;;;;;;;16.53;61.00;101521.97;5012292;28;20096;-75
2022/05/22 08:39:59;;;;;;;14.77;4.00;;;;;;;16.56;62.34;101506.94;4994631;28;20034;-76
2022/05/22 08:42:37;;;;;;;13.43;3.85;;;;;;;16.58;63.64;101499.34;5012667;28;20030;-77
2022/05/22 08:45:09;;;;;;;11.75;4.80;;;;;;;16.62;61.85;101501.34;5012164;28;20033;-76
2022/05/22 08:47:42;;;;;;;12.05;4.95;;;;;;;16.68;62.56;101495.94;5007753;28;20156;-76
2022/05/22 08:50:11;;;;;;;13.35;4.68;;;;;;;16.77;63.74;101495.28;5004206;28;20034;-75
2022/05/22 08:53:02;;;;;;;11.55;4.65;;;;;;;16.79;63.64;101493.09;4993265;28;20042;-76
2022/05/22 09:01:15;;;;;;;14.43;4.60;;;;;;;16.74;60.08;101484.00;4993890;28;20551;-76
2022/05/22 09:04:03;;;;;;;12.38;4.68;;;;;;;16.79;62.34;101478.63;5007957;28;20528;-75
2022/05/22 09:06:32;;;;;;;11.07;4.20;;;;;;;16.89;63.07;101477.97;4995124;28;20041;-75
2022/05/22 09:08:58;;;;;;;8.98;4.15;;;;;;;17.10;63.55;101466.22;5002667;28;20026;-75
2022/05/22 09:11:54;;;;;;;14.95;4.68;;;;;;;17.28;63.21;101476.00;5015375;28;20037;-75
2022/05/22 09:14:42;;;;;;;9.63;5.18;;;;;;;17.38;62.73;101478.06;5014902;28;20072;-75
2022/05/22 09:17:24;;;;;;;12.15;6.00;;;;;;;17.48;61.29;101474.59;5015081;28;20037;-75
2022/05/22 09:20:09;;;;;;;14.45;4.88;;;;;;;17.56;60.68;101467.84;5009958;28;20034;-78
2022/05/22 09:23:04;;;;;;;14.13;5.43;;;;;;;17.62;60.62;101462.19;4990533;28;20148;-76
2022/05/22 09:25:52;;;;;;;9.30;4.63;;;;;;;17.74;59.83;101464.78;5031393;28;20070;-79
2022/05/22 09:28:25;;;;;;;12.07;5.18;;;;;;;17.82;59.95;101461.56;5008941;28;20033;-77
2022/05/22 09:31:08;;;;;;;10.38;4.95;;;;;;;17.74;57.18;101452.97;5015322;28;20026;-78
2022/05/22 09:33:50;;;;;;;10.38;4.63;;;;;;;17.72;56.23;101455.97;4998717;28;20026;-79
2022/05/22 09:36:45;;;;;;;12.68;5.35;;;;;;;17.64;55.50;101445.50;4998308;28;20042;-77
2022/05/22 09:39:32;;;;;;;12.85;5.05;;;;;;;17.81;59.11;101451.69;4991166;28;20738;-78
2022/05/22 09:42:27;;;;;;;8.80;4.25;;;;;;;17.84;58.00;101450.34;5013983;28;20473;-80
2022/05/22 09:45:03;;;;;;;10.10;4.40;;;;;;;17.82;57.14;101441.56;4997026;28;20041;-78
2022/05/22 09:48:00;;;;;;;14.80;4.93;;;;;;;17.79;56.40;101429.22;5014042;28;20054;-75
2022/05/22 09:50:35;;;;;;;13.57;4.43;;;;;;;17.90;57.05;101435.66;5014598;28;20034;-79
2022/05/22 09:53:16;;;;;;;12.90;4.93;;;;;;;17.96;57.00;101437.34;5025055;28;20511;-76
2022/05/22 09:55:52;;;;;;;14.38;4.95;;;;;;;18.16;58.49;101444.06;5033893;28;20120;-76
2022/05/22 09:58:52;;;;;;;10.75;4.55;;;;;;;18.32;57.70;101450.50;5016315;28;20163;-76
2022/05/22 10:01:23;;;;;;;10.90;4.80;;;;;;;18.34;55.66;101445.59;5028270;28;20028;-75
2022/05/22 10:04:13;;;;;;;11.40;4.50;;;;;;;18.28;55.11;101441.16;5033625;28;20025;-77
2022/05/22 10:07:04;;;;;;;13.20;5.32;;;;;;;18.31;55.32;101440.63;5034081;28;20036;-79
2022/05/22 10:09:55;;;;;;;15.02;5.13;;;;;;;18.39;56.30;101443.72;5017068;28;20052;-75
2022/05/22 10:12:28;;;;;;;10.25;5.43;;;;;;;18.58;57.98;101438.66;5051533;28;20527;-76
2022/05/22 10:14:58;;;;;;;11.93;5.25;;;;;;;18.65;55.32;101434.84;5034803;28;20079;-74
2022/05/22 10:17:43;;;;;;;14.60;5.25;;;;;;;18.78;57.99;101435.19;5034783;28;20361;-79
2022/05/22 10:20:18;;;;;;;13.88;5.15;;;;;;;18.76;53.53;101437.34;5033780;28;20063;-77
2022/05/22 10:23:30;;;;;;;15.35;6.07;;;;;;;18.69;55.19;101431.31;5033578;28;20137;-78
2022/05/22 10:25:58;;;;;;;11.90;4.90;;;;;;;18.48;53.35;101429.50;4986238;28;20038;-78
2022/05/22 10:28:32;;;;;;;12.75;5.53;;;;;;;18.36;55.89;101429.72;5013880;28;20385;-77
2022/05/22 10:31:19;;;;;;;12.90;5.32;;;;;;;18.56;57.05;101429.03;5013836;28;20449;-79
2022/05/22 10:34:01;;;;;;;19.13;5.20;;;;;;;18.79;56.16;101419.56;4996317;28;20030;-79
2022/05/22 10:36:32;;;;;;;13.93;5.78;;;;;;;18.94;55.01;101416.09;5000873;28;20079;-77
2022/05/22 10:39:06;;;;;;;15.38;5.85;;;;;;;18.92;53.28;101416.38;5014999;28;20464;-77
2022/05/22 10:44:37;;;;;;;12.02;4.93;;;;;;;18.82;52.96;101393.53;5033551;28;20048;-78
2022/05/22 10:47:03;;;;;;;15.60;4.70;;;;;;;18.83;52.49;101404.22;5015647;28;20044;-76
2022/05/22 10:49:44;;;;;;;11.93;4.70;;;;;;;18.97;53.47;101393.63;5033527;28;20033;-79
2022/05/22 10:52:21;;;;;;;14.27;5.05;;;;;;;19.27;54.12;101387.41;5032776;28;20053;-76
2022/05/22 10:54:55;;;;;;;10.50;4.80;;;;;;;19.47;54.65;101394.03;5015658;28;20434;-77
2022/05/22 10:57:23;;;;;;;11.43;4.97;;;;;;;19.50;51.21;101385.25;5033282;28;20032;-77
2022/05/22 10:59:50;;;;;;;9.73;4.93;;;;;;;19.47;49.29;101375.66;5015659;28;20380;-77
2022/05/22 11:02:24;;;;;;;11.23;4.63;;;;;;;19.69;53.88;101376.47;5030772;28;20037;-76
2022/05/22 11:04:51;;;;;;;12.50;5.10;;;;;;;19.71;50.40;101375.13;5032965;28;20045;-79
2022/05/22 11:07:33;;;;;;;12.15;4.50;;;;;;;19.82;52.48;101371.31;5032919;28;20515;-78
2022/05/22 11:10:15;;;;;;;11.80;4.55;;;;;;;19.93;52.12;101374.88;5033561;28;20076;-76
2022/05/22 11:12:41;;;;;;;12.82;4.80;;;;;;;19.79;48.64;101369.13;5033813;28;20033;-79
2022/05/22 11:15:13;;;;;;;12.98;5.20;;;;;;;19.69;49.87;101363.59;5052889;28;20120;-75
2022/05/22 11:17:39;;;;;;;11.57;4.72;;;;;;;19.65;50.54;101360.56;5048945;28;20045;-77
2022/05/22 11:20:14;;;;;;;13.25;4.75;;;;;;;19.88;53.23;101366.63;5035570;28;20030;-75
2022/05/22 11:23:00;;;;;;;11.57;4.80;;;;;;;19.89;52.69;101351.81;5034820;28;20037;-77
2022/05/22 11:25:33;;;;;;;12.05;4.85;;;;;;;20.03;51.33;101341.09;5033560;28;20037;-79
2022/05/22 11:28:13;;;;;;;11.52;4.50;;;;;;;20.25;50.86;101337.22;5015588;28;20495;-78
2022/05/22 11:31:03;;;;;;;10.05;4.40;;;;;;;20.43;50.21;101330.28;5032879;28;20037;-76
2022/05/22 11:33:52;;;;;;;11.32;4.65;;;;;;;20.55;50.82;101330.81;5032948;28;20022;-80
2022/05/22 11:36:52;;;;;;;10.88;4.40;;;;;;;20.69;51.15;101317.28;5032124;28;20500;-76
2022/05/22 11:39:28;;;;;;;10.77;4.43;;;;;;;20.68;47.53;101326.63;5031920;28;20026;-79
2022/05/22 11:41:58;;;;;;;8.38;3.92;;;;;;;20.66;47.46;101307.66;5014861;28;20029;-77
2022/05/22 11:44:57;;;;;;;11.68;3.90;;;;;;;20.77;50.02;101321.38;5032222;28;20377;-78
2022/05/22 11:47:47;;;;;;;9.48;4.00;;;;;;;20.79;48.16;101319.16;5014049;28;20026;-77